Time;durP1;ratioP1;P1;durP2;ratioP2;P2;SDS_P1;SDS_P2;PMS_P1;PMS_P2;Temp;Humidity;BMP_temperature;BMP_pressure;BME280_temperature;BME280_humidity;BME280_pressure;Samples;Min_cycle;Max_cycle;Signal;HPM_P1;HPM_P2
2022/10/07 00:01:27;;;;;;;7.65;1.67;;;14.20;99.90;;;;;;4975375;28;20034;-75
2022/10/07 00:03:52;;;;;;;4.90;1.70;;;14.10;99.90;;;;;;4974057;28;20371;-75
2022/10/07 00:06:20;;;;;;;6.63;1.50;;;14.10;99.90;;;;;;4974885;28;20150;-76
2022/10/07 00:08:51;;;;;;;4.60;1.80;;;14.10;99.90;;;;;;4974031;28;20170;-76
2022/10/07 00:11:19;;;;;;;6.38;1.73;;;14.10;99.90;;;;;;4973371;28;20054;-76
2022/10/07 00:13:47;;;;;;;5.57;2.10;;;14.10;99.90;;;;;;4973890;28;20452;-76
2022/10/07 00:16:16;;;;;;;6.95;1.50;;;14.10;99.90;;;;;;4974938;28;20023;-75
2022/10/07 00:18:42;;;;;;;5.57;1.85;;;14.00;99.90;;;;;;4990432;28;20026;-75
2022/10/07 00:21:10;;;;;;;9.55;1.73;;;14.10;99.90;;;;;;4974298;28;20466;-75
2022/10/07 00:23:37;;;;;;;4.78;1.70;;;14.10;99.90;;;;;;4975311;28;20027;-76
2022/10/07 00:26:05;;;;;;;4.20;1.83;;;14.00;99.90;;;;;;4973576;28;20026;-76
2022/10/07 00:28:32;;;;;;;8.32;2.13;;;14.00;99.90;;;;;;4975006;28;20027;-76
2022/10/07 00:31:03;;;;;;;10.05;1.90;;;14.00;99.90;;;;;;4973722;28;20034;-75
2022/10/07 00:33:31;;;;;;;4.95;1.73;;;14.00;99.90;;;;;;4990077;28;20026;-76
2022/10/07 00:35:56;;;;;;;6.07;1.58;;;14.00;99.90;;;;;;4975035;28;20031;-75
2022/10/07 00:38:22;;;;;;;7.75;1.70;;;14.00;99.90;;;;;;4974500;28;20522;-76
2022/10/07 00:40:48;;;;;;;7.15;1.58;;;14.00;99.90;;;;;;4974598;28;20027;-75
2022/10/07 00:43:25;;;;;;;5.07;2.17;;;14.00;99.90;;;;;;4974147;28;20067;-76
2022/10/07 00:45:53;;;;;;;6.05;1.67;;;14.00;99.90;;;;;;4973682;28;20026;-76
2022/10/07 00:48:23;;;;;;;5.10;1.60;;;14.00;99.90;;;;;;4974468;28;20029;-76
2022/10/07 00:50:51;;;;;;;7.90;1.70;;;14.00;99.90;;;;;;4973167;28;20047;-76
2022/10/07 00:53:17;;;;;;;4.47;1.60;;;14.10;99.90;;;;;;4973120;28;20372;-76
2022/10/07 00:55:43;;;;;;;7.43;1.88;;;14.00;99.90;;;;;;4973423;28;20455;-76
2022/10/07 00:58:09;;;;;;;10.90;1.67;;;14.00;99.90;;;;;;4974204;28;20054;-76
2022/10/07 01:00:37;;;;;;;8.38;2.00;;;14.00;99.90;;;;;;4974322;28;20101;-76
2022/10/07 01:03:04;;;;;;;9.85;1.67;;;14.00;99.90;;;;;;4972794;28;20372;-77
2022/10/07 01:05:30;;;;;;;3.92;1.30;;;14.00;99.90;;;;;;4973314;28;20042;-76
2022/10/07 01:07:57;;;;;;;7.15;1.33;;;14.00;99.90;;;;;;4974481;28;20121;-75
2022/10/07 01:10:25;;;;;;;5.88;1.55;;;14.00;99.90;;;;;;4972509;28;20035;-76
2022/10/07 01:13:13;;;;;;;5.22;1.60;;;14.00;99.90;;;;;;4973197;28;20494;-76
2022/10/07 01:16:02;;;;;;;5.30;1.40;;;14.00;99.90;;;;;;4974510;28;20025;-77
2022/10/07 01:18:41;;;;;;;5.30;1.88;;;13.90;99.90;;;;;;4943550;28;20030;-76
2022/10/07 01:21:34;;;;;;;7.85;2.10;;;13.90;99.90;;;;;;4973724;28;20023;-77
2022/10/07 01:24:39;;;;;;;4.10;1.10;;;13.90;99.90;;;;;;4972488;28;20373;-76
2022/10/07 01:27:15;;;;;;;7.32;1.45;;;13.80;99.90;;;;;;4973717;28;20037;-77
2022/10/07 01:29:44;;;;;;;12.23;1.77;;;13.80;99.90;;;;;;4972883;28;20034;-77
2022/10/07 01:32:20;;;;;;;5.53;1.58;;;13.70;99.90;;;;;;4972284;28;20066;-76
2022/10/07 01:34:48;;;;;;;4.75;1.70;;;13.70;99.90;;;;;;4974496;28;20027;-76
2022/10/07 01:37:16;;;;;;;5.78;1.58;;;13.80;99.90;;;;;;4972481;28;20030;-76
2022/10/07 01:39:49;;;;;;;6.55;1.58;;;13.70;99.90;;;;;;4989501;28;20427;-76
2022/10/07 01:42:16;;;;;;;7.38;1.42;;;13.70;99.90;;;;;;4972435;28;20073;-76
2022/10/07 01:44:44;;;;;;;3.50;1.58;;;13.70;99.90;;;;;;4972956;28;20030;-76
2022/10/07 01:47:10;;;;;;;6.30;1.42;;;13.70;99.90;;;;;;4973327;28;20026;-76
2022/10/07 01:49:36;;;;;;;7.65;1.75;;;13.70;99.90;;;;;;4972776;28;20022;-76
2022/10/07 01:52:16;;;;;;;4.47;1.33;;;13.80;99.90;;;;;;4989351;28;20487;-76
2022/10/07 01:55:04;;;;;;;12.63;1.67;;;13.70;99.90;;;;;;4976219;28;20022;-74
2022/10/07 01:57:54;;;;;;;7.65;1.50;;;13.70;99.90;;;;;;4975983;28;20133;-74
2022/10/07 02:00:20;;;;;;;3.22;1.63;;;13.70;99.90;;;;;;4969779;28;20037;-74
2022/10/07 02:02:57;;;;;;;4.18;1.27;;;13.70;99.90;;;;;;4992820;28;20022;-74
2022/10/07 02:05:43;;;;;;;4.07;1.10;;;13.70;99.90;;;;;;4975253;28;20022;-74
2022/10/07 02:08:18;;;;;;;6.28;1.48;;;13.60;99.90;;;;;;4975466;28;20111;-74
2022/10/07 02:10:53;;;;;;;3.25;1.10;;;13.60;99.90;;;;;;4975671;28;20022;-73
2022/10/07 02:13:42;;;;;;;7.25;1.55;;;13.70;99.90;;;;;;4975297;28;20037;-76
2022/10/07 02:16:23;;;;;;;2.75;1.20;;;13.60;99.90;;;;;;4975132;28;20018;-77
2022/10/07 02:18:51;;;;;;;5.60;1.23;;;13.60;99.90;;;;;;4975991;28;20462;-75
2022/10/07 02:21:21;;;;;;;4.57;1.40;;;13.60;99.90;;;;;;4991364;28;20049;-76
2022/10/07 02:23:48;;;;;;;4.47;1.15;;;13.60;99.90;;;;;;4975597;28;20066;-75
2022/10/07 02:26:19;;;;;;;4.30;1.55;;;13.60;99.90;;;;;;4992663;28;20466;-76
2022/10/07 02:28:49;;;;;;;3.33;1.08;;;13.50;99.90;;;;;;4975745;28;20109;-75
2022/10/07 02:31:19;;;;;;;3.92;1.05;;;13.60;99.90;;;;;;4992514;28;20061;-75
2022/10/07 02:33:46;;;;;;;2.95;1.10;;;13.60;99.90;;;;;;4975688;28;20027;-75
2022/10/07 02:36:23;;;;;;;4.90;0.90;;;13.60;99.90;;;;;;4975042;28;20030;-75
2022/10/07 02:38:48;;;;;;;5.95;1.25;;;13.60;99.90;;;;;;4975579;28;20447;-75
2022/10/07 02:41:31;;;;;;;8.07;1.13;;;13.60;99.90;;;;;;4975031;28;20041;-75
2022/10/07 02:44:17;;;;;;;4.18;1.20;;;13.60;99.90;;;;;;4993541;28;20018;-75
2022/10/07 02:47:02;;;;;;;2.63;0.95;;;13.50;99.90;;;;;;4995170;28;20022;-75
2022/10/07 02:49:30;;;;;;;4.63;1.20;;;13.50;99.90;;;;;;4978487;28;20227;-75
2022/10/07 02:51:58;;;;;;;2.85;0.95;;;13.50;99.90;;;;;;4995947;28;20491;-75
2022/10/07 02:54:39;;;;;;;6.13;1.20;;;13.50;99.90;;;;;;4978458;28;20030;-76
2022/10/07 02:57:06;;;;;;;6.43;1.30;;;13.50;99.90;;;;;;4995500;28;20023;-77
2022/10/07 02:59:34;;;;;;;5.00;1.25;;;13.50;99.90;;;;;;4975233;28;20348;-76
2022/10/07 03:02:02;;;;;;;2.83;1.00;;;13.50;99.90;;;;;;4975575;28;20026;-76
2022/10/07 03:04:28;;;;;;;4.50;1.00;;;13.50;99.90;;;;;;4992929;28;20056;-77
2022/10/07 03:06:54;;;;;;;3.88;1.10;;;13.50;99.90;;;;;;4993282;28;20447;-78
2022/10/07 03:09:20;;;;;;;4.80;1.45;;;13.50;99.90;;;;;;4991298;28;20030;-75
2022/10/07 03:11:45;;;;;;;8.30;1.42;;;13.50;99.90;;;;;;4975373;28;20094;-75
2022/10/07 03:14:11;;;;;;;7.43;1.15;;;13.40;99.90;;;;;;4992444;28;20031;-75
2022/10/07 03:16:37;;;;;;;5.97;1.27;;;13.40;99.90;;;;;;4975315;28;20121;-75
2022/10/07 03:19:02;;;;;;;5.88;1.20;;;13.40;99.90;;;;;;4975333;28;20033;-75
2022/10/07 03:21:31;;;;;;;2.83;1.00;;;13.40;99.90;;;;;;4974789;28;20030;-75
2022/10/07 03:23:59;;;;;;;7.90;1.00;;;13.30;99.90;;;;;;4992883;28;20045;-75
2022/10/07 03:26:25;;;;;;;5.50;1.27;;;13.30;99.90;;;;;;4992397;28;20021;-75
2022/10/07 03:28:50;;;;;;;3.85;0.88;;;13.30;99.90;;;;;;4975059;28;20022;-75
2022/10/07 03:31:16;;;;;;;4.28;0.90;;;13.30;99.90;;;;;;4974615;28;20026;-76
2022/10/07 03:33:42;;;;;;;4.82;0.93;;;13.30;99.90;;;;;;4992817;28;20061;-78
2022/10/07 03:36:08;;;;;;;4.38;0.90;;;13.30;99.90;;;;;;4992437;28;20391;-77
2022/10/07 03:38:34;;;;;;;5.28;1.65;;;13.30;99.90;;;;;;4992100;28;20022;-77
2022/10/07 03:41:00;;;;;;;6.22;1.40;;;13.30;99.90;;;;;;4975193;28;20065;-77
2022/10/07 03:43:27;;;;;;;7.38;1.00;;;13.30;99.90;;;;;;4992053;28;20383;-77
2022/10/07 03:45:52;;;;;;;4.45;1.45;;;13.20;99.90;;;;;;4992612;28;20026;-79
2022/10/07 03:48:18;;;;;;;4.90;1.23;;;13.30;99.90;;;;;;4974610;28;20026;-77
2022/10/07 03:50:51;;;;;;;7.10;1.10;;;13.30;99.90;;;;;;4976544;28;20057;-77
2022/10/07 03:53:17;;;;;;;6.75;1.42;;;13.30;99.90;;;;;;4994806;28;20030;-79
2022/10/07 03:55:42;;;;;;;6.40;1.30;;;13.30;99.90;;;;;;4976222;28;20535;-75
2022/10/07 03:58:08;;;;;;;6.45;1.65;;;13.20;99.90;;;;;;4977506;28;20033;-75
2022/10/07 04:00:33;;;;;;;4.65;1.35;;;13.30;99.90;;;;;;4977310;28;20165;-74
2022/10/07 04:02:59;;;;;;;4.80;1.10;;;13.30;99.90;;;;;;4993757;28;20379;-74
2022/10/07 04:05:25;;;;;;;4.93;1.90;;;13.30;99.90;;;;;;4994470;28;20066;-74
2022/10/07 04:07:51;;;;;;;5.35;1.15;;;13.30;99.90;;;;;;4977623;28;20030;-76
2022/10/07 04:10:18;;;;;;;8.07;1.65;;;13.30;99.90;;;;;;4977249;28;20030;-79
2022/10/07 04:12:44;;;;;;;5.47;1.40;;;13.30;99.90;;;;;;4977442;28;20092;-76
2022/10/07 04:15:14;;;;;;;3.90;1.27;;;13.20;99.90;;;;;;4977076;28;20076;-76
2022/10/07 04:17:44;;;;;;;7.93;1.25;;;13.30;99.90;;;;;;4977208;28;20022;-77
2022/10/07 04:20:11;;;;;;;7.13;1.90;;;13.20;99.90;;;;;;4977449;28;20037;-76
2022/10/07 04:22:37;;;;;;;5.80;1.60;;;13.30;99.90;;;;;;4977108;28;20113;-77
2022/10/07 04:27:55;;;;;;;8.52;2.25;;;13.20;99.90;;;;;;4994712;28;20073;-76
2022/10/07 04:30:23;;;;;;;5.72;1.90;;;13.20;99.90;;;;;;4994034;28;20034;-76
2022/10/07 04:32:49;;;;;;;7.70;1.75;;;13.20;99.90;;;;;;4994984;28;20109;-76
2022/10/07 04:35:19;;;;;;;8.23;2.22;;;13.10;99.90;;;;;;4976997;28;20045;-78
2022/10/07 04:37:46;;;;;;;4.55;2.00;;;13.10;99.90;;;;;;4977084;28;20372;-76
2022/10/07 04:40:12;;;;;;;4.40;1.58;;;13.10;99.90;;;;;;4994314;28;20076;-76
2022/10/07 04:45:39;;;;;;;7.32;1.50;;;13.10;99.90;;;;;;4914710;29;20036;-76
2022/10/07 04:48:05;;;;;;;4.57;2.00;;;13.10;99.90;;;;;;4964631;28;20045;-76
2022/10/07 04:50:37;;;;;;;9.27;1.65;;;13.00;99.90;;;;;;4975843;28;20058;-76
2022/10/07 04:53:06;;;;;;;10.93;2.58;;;13.00;99.90;;;;;;4994358;28;20026;-76
2022/10/07 04:55:40;;;;;;;7.30;1.60;;;13.00;99.90;;;;;;4976257;28;20081;-76
2022/10/07 04:58:06;;;;;;;12.00;2.30;;;13.00;99.90;;;;;;4993910;28;20113;-75
2022/10/07 05:00:33;;;;;;;9.25;2.42;;;13.00;99.90;;;;;;4976177;28;20487;-75
2022/10/07 05:02:59;;;;;;;8.02;2.70;;;13.00;99.90;;;;;;4976078;28;20058;-74
2022/10/07 05:05:26;;;;;;;11.90;2.83;;;12.90;99.90;;;;;;4993051;28;20077;-74
2022/10/07 05:07:52;;;;;;;8.18;2.53;;;12.90;99.90;;;;;;4993517;28;20040;-75
2022/10/07 05:10:18;;;;;;;11.85;2.97;;;12.90;99.90;;;;;;4992391;28;20030;-77
2022/10/07 05:12:43;;;;;;;7.38;2.72;;;12.80;99.90;;;;;;4975974;28;20483;-75
2022/10/07 05:15:09;;;;;;;8.80;2.60;;;12.80;99.90;;;;;;4993300;28;20394;-75
2022/10/07 05:17:35;;;;;;;6.95;2.42;;;12.80;99.90;;;;;;4975910;28;20077;-75
2022/10/07 05:20:03;;;;;;;9.88;2.90;;;12.70;99.90;;;;;;4976175;28;20495;-75
2022/10/07 05:22:30;;;;;;;7.00;2.97;;;12.70;99.90;;;;;;4993196;28;20464;-75
2022/10/07 05:24:56;;;;;;;11.32;3.08;;;12.70;99.90;;;;;;4976292;28;20382;-75
2022/10/07 05:27:21;;;;;;;7.88;2.63;;;12.60;99.90;;;;;;4991911;28;20038;-76
2022/10/07 05:29:47;;;;;;;7.25;3.15;;;12.60;99.90;;;;;;4976122;28;20026;-75
2022/10/07 05:32:12;;;;;;;7.45;2.67;;;12.60;99.90;;;;;;4993278;28;20487;-75
2022/10/07 05:34:38;;;;;;;9.10;2.55;;;12.60;99.90;;;;;;4975633;28;20038;-75
2022/10/07 05:37:03;;;;;;;12.80;3.10;;;12.60;99.90;;;;;;4993344;28;20038;-75
2022/10/07 05:39:29;;;;;;;9.73;2.80;;;12.60;99.90;;;;;;4993047;28;20037;-74
2022/10/07 05:41:55;;;;;;;7.80;2.67;;;12.50;99.90;;;;;;4993417;28;20428;-74
2022/10/07 05:44:20;;;;;;;11.40;2.88;;;12.50;99.90;;;;;;4975482;28;20542;-75
2022/10/07 05:46:46;;;;;;;7.43;3.05;;;12.50;99.90;;;;;;4975970;28;20033;-74
2022/10/07 05:49:11;;;;;;;11.40;3.17;;;12.50;99.90;;;;;;4993302;28;20038;-75
2022/10/07 05:51:37;;;;;;;12.50;3.25;;;12.50;99.90;;;;;;4975237;28;20527;-75
2022/10/07 05:54:02;;;;;;;8.38;2.65;;;12.50;99.90;;;;;;4975898;28;20034;-74
2022/10/07 05:56:28;;;;;;;12.02;2.75;;;12.50;99.90;;;;;;4975334;28;20125;-75
2022/10/07 05:58:56;;;;;;;9.88;3.35;;;12.40;99.90;;;;;;4976013;28;20026;-74
2022/10/07 06:01:23;;;;;;;9.07;3.28;;;12.50;99.90;;;;;;4991517;28;20045;-76
2022/10/07 06:03:51;;;;;;;13.23;3.53;;;12.50;99.90;;;;;;4975902;28;20117;-76
2022/10/07 06:06:17;;;;;;;11.82;3.17;;;12.50;99.90;;;;;;4975983;28;20494;-75
2022/10/07 06:08:43;;;;;;;12.40;3.90;;;12.50;99.90;;;;;;4975187;28;20030;-76
2022/10/07 06:13:55;;;;;;;10.23;3.13;;;12.40;99.90;;;;;;4993250;28;20045;-75
2022/10/07 06:16:22;;;;;;;10.00;2.90;;;12.40;99.90;;;;;;4975225;28;20030;-79
2022/10/07 06:18:51;;;;;;;10.02;3.58;;;12.30;99.90;;;;;;4994976;28;20033;-75
2022/10/07 06:21:17;;;;;;;6.10;2.67;;;12.30;99.90;;;;;;4979457;28;20053;-75
2022/10/07 06:23:43;;;;;;;8.35;2.75;;;12.30;99.90;;;;;;4996170;28;20044;-75
2022/10/07 06:26:10;;;;;;;13.50;3.28;;;12.30;99.90;;;;;;4996878;28;20522;-75
2022/10/07 06:28:38;;;;;;;8.23;3.15;;;12.20;99.90;;;;;;4978995;28;20030;-75
2022/10/07 06:31:15;;;;;;;12.13;3.05;;;12.20;99.90;;;;;;4979306;28;20052;-75
2022/10/07 06:33:41;;;;;;;9.27;3.22;;;12.30;99.90;;;;;;4978860;28;20030;-75
2022/10/07 06:36:12;;;;;;;9.25;2.78;;;12.10;99.90;;;;;;4996790;28;20452;-75
2022/10/07 06:38:48;;;;;;;8.48;3.47;;;12.20;99.90;;;;;;4996220;28;20030;-75
2022/10/07 06:41:14;;;;;;;14.05;4.00;;;12.20;99.90;;;;;;4976246;28;20030;-75
2022/10/07 06:43:40;;;;;;;11.18;3.50;;;12.30;99.90;;;;;;4995074;28;20058;-74
2022/10/07 06:46:09;;;;;;;10.00;3.30;;;12.20;99.90;;;;;;4985615;28;20030;-74
2022/10/07 06:48:34;;;;;;;11.73;3.72;;;12.20;99.90;;;;;;4978324;28;20413;-74
2022/10/07 06:51:04;;;;;;;11.70;3.47;;;12.20;99.90;;;;;;4978487;28;20184;-76
2022/10/07 06:53:30;;;;;;;10.93;3.00;;;12.30;99.90;;;;;;4978589;28;20022;-76
2022/10/07 06:56:03;;;;;;;10.60;3.60;;;12.30;99.90;;;;;;4996331;28;20031;-75
2022/10/07 06:58:29;;;;;;;12.65;3.83;;;12.30;99.90;;;;;;4978327;28;20022;-76
2022/10/07 07:00:56;;;;;;;9.73;3.55;;;12.30;99.90;;;;;;4994906;28;20423;-76
2022/10/07 07:03:22;;;;;;;11.50;3.30;;;12.30;99.90;;;;;;4978385;28;20038;-76
2022/10/07 07:05:52;;;;;;;10.20;3.13;;;12.30;99.90;;;;;;4978568;28;20388;-75
2022/10/07 07:08:22;;;;;;;9.73;3.38;;;12.30;99.90;;;;;;4978435;28;20475;-76
2022/10/07 07:10:48;;;;;;;11.15;3.33;;;12.30;99.90;;;;;;4977694;28;20356;-75
2022/10/07 07:13:14;;;;;;;8.85;3.22;;;12.20;99.90;;;;;;4994233;28;20490;-75
2022/10/07 07:15:40;;;;;;;10.82;3.28;;;12.20;99.90;;;;;;4995218;28;20023;-77
2022/10/07 07:18:08;;;;;;;11.20;3.30;;;12.20;99.90;;;;;;4995436;28;20074;-74
2022/10/07 07:20:36;;;;;;;13.68;4.10;;;12.20;99.90;;;;;;4977407;28;20033;-75
2022/10/07 07:23:03;;;;;;;9.05;2.80;;;12.30;99.90;;;;;;4977572;28;20120;-75
2022/10/07 07:25:30;;;;;;;11.68;3.50;;;12.30;99.90;;;;;;4977015;28;20045;-75
2022/10/07 07:28:00;;;;;;;12.20;3.20;;;12.30;99.90;;;;;;4995196;28;20072;-75
2022/10/07 07:30:27;;;;;;;10.75;3.47;;;12.30;99.90;;;;;;4977075;28;20057;-77
2022/10/07 07:32:54;;;;;;;9.60;2.80;;;12.40;99.90;;;;;;4977829;28;20046;-75
2022/10/07 07:35:21;;;;;;;6.35;3.15;;;12.50;99.90;;;;;;4995538;28;20495;-75
2022/10/07 07:37:46;;;;;;;9.30;3.00;;;12.50;99.90;;;;;;4977572;28;20371;-75
2022/10/07 07:40:12;;;;;;;9.48;2.90;;;12.60;99.90;;;;;;4977895;28;20041;-75
2022/10/07 07:42:37;;;;;;;7.88;2.78;;;12.60;99.90;;;;;;4994600;28;20088;-75
2022/10/07 07:45:03;;;;;;;9.88;3.20;;;12.60;99.90;;;;;;4995308;28;20031;-75
2022/10/07 07:47:29;;;;;;;9.10;3.17;;;12.60;99.90;;;;;;4994951;28;20034;-75
2022/10/07 07:49:55;;;;;;;8.07;2.97;;;12.60;99.90;;;;;;4977641;28;20379;-75
2022/10/07 07:52:21;;;;;;;13.65;3.35;;;12.70;99.90;;;;;;4994682;28;20042;-75
2022/10/07 07:54:47;;;;;;;9.75;3.00;;;12.70;99.90;;;;;;4977129;28;20617;-77
2022/10/07 07:57:12;;;;;;;8.18;2.55;;;12.70;99.90;;;;;;4977383;28;20031;-77
2022/10/07 07:59:38;;;;;;;11.25;3.15;;;12.80;99.90;;;;;;4972034;28;20032;-78
2022/10/07 08:02:05;;;;;;;8.00;2.53;;;12.80;99.90;;;;;;4968178;28;20034;-77
2022/10/07 08:04:31;;;;;;;8.77;2.70;;;12.80;99.90;;;;;;4968792;28;20117;-79
2022/10/07 08:06:56;;;;;;;9.10;2.83;;;12.90;99.90;;;;;;4969686;28;20054;-76
2022/10/07 08:09:23;;;;;;;7.32;2.80;;;12.90;99.90;;;;;;4970257;28;20045;-77
2022/10/07 08:11:49;;;;;;;8.35;2.70;;;12.90;99.90;;;;;;4953611;28;20435;-77
2022/10/07 08:14:16;;;;;;;55.80;6.30;;;12.90;99.90;;;;;;4970098;28;20033;-77
2022/10/07 08:16:46;;;;;;;13.00;3.38;;;13.00;99.90;;;;;;4969961;28;20046;-76
2022/10/07 08:19:11;;;;;;;10.25;3.08;;;13.00;99.90;;;;;;4973202;28;20037;-76
2022/10/07 08:21:38;;;;;;;9.05;3.10;;;13.10;99.90;;;;;;4972307;28;20114;-76
2022/10/07 08:24:07;;;;;;;11.65;2.70;;;13.00;99.90;;;;;;4956189;28;20424;-76
2022/10/07 08:26:33;;;;;;;8.15;3.40;;;13.10;99.90;;;;;;4971258;28;20496;-77
2022/10/07 08:29:00;;;;;;;9.23;2.88;;;13.20;99.90;;;;;;4972000;28;20023;-76
2022/10/07 08:31:27;;;;;;;6.68;2.40;;;13.20;99.90;;;;;;4971986;28;20491;-77
2022/10/07 08:33:54;;;;;;;6.88;2.47;;;13.30;99.90;;;;;;4972533;28;20046;-76
2022/10/07 08:36:23;;;;;;;10.20;2.80;;;13.40;99.90;;;;;;4995430;28;20037;-79
2022/10/07 08:38:50;;;;;;;11.65;3.22;;;13.50;99.90;;;;;;4977501;28;20116;-81
2022/10/07 08:41:38;;;;;;;8.45;2.97;;;13.50;99.90;;;;;;4976954;28;20026;-81
2022/10/07 08:44:15;;;;;;;8.32;2.95;;;13.60;99.90;;;;;;4976655;28;20034;-80
2022/10/07 08:46:48;;;;;;;12.45;3.63;;;13.50;99.90;;;;;;4977815;28;20072;-81
2022/10/07 08:49:18;;;;;;;7.05;3.00;;;13.50;99.90;;;;;;4995343;28;20361;-79
2022/10/07 08:51:52;;;;;;;8.32;2.55;;;13.50;99.90;;;;;;4972592;28;20059;-77
2022/10/07 08:54:25;;;;;;;8.70;2.90;;;13.60;99.90;;;;;;4955167;28;20544;-78
2022/10/07 08:56:53;;;;;;;10.73;3.05;;;13.60;99.90;;;;;;4963293;28;20026;-78
2022/10/07 08:59:28;;;;;;;8.18;3.17;;;13.60;99.90;;;;;;4974466;28;20027;-78
2022/10/07 09:02:03;;;;;;;7.53;3.08;;;13.60;99.90;;;;;;4974303;28;20090;-78
2022/10/07 09:04:52;;;;;;;10.13;2.95;;;13.60;99.90;;;;;;4974547;28;20050;-78
2022/10/07 09:07:46;;;;;;;6.30;2.42;;;13.60;99.90;;;;;;4974309;28;20543;-76
2022/10/07 09:10:24;;;;;;;9.52;3.10;;;13.80;99.90;;;;;;4965817;28;20504;-79
2022/10/07 09:12:57;;;;;;;4.75;2.17;;;13.80;99.90;;;;;;4978913;28;20030;-80
2022/10/07 09:15:29;;;;;;;7.65;2.38;;;13.90;99.90;;;;;;4973328;28;20051;-76
2022/10/07 09:18:15;;;;;;;;;;;13.80;99.90;;;;;;4973669;28;20035;-79
2022/10/07 09:20:44;;;;;;;6.38;2.50;;;13.90;99.90;;;;;;4970579;28;19928;-78
2022/10/07 09:23:14;;;;;;;8.45;2.38;;;13.90;99.90;;;;;;4972551;28;20141;-75
2022/10/07 09:25:40;;;;;;;6.18;2.58;;;14.00;99.90;;;;;;4971651;28;20376;-78
2022/10/07 09:28:16;;;;;;;5.45;2.60;;;14.10;99.90;;;;;;4972259;28;20361;-77
2022/10/07 09:30:42;;;;;;;8.18;2.53;;;14.10;99.90;;;;;;4972143;28;20033;-77
2022/10/07 09:33:28;;;;;;;9.90;2.20;;;14.20;99.90;;;;;;4973690;28;20034;-78
2022/10/07 09:36:06;;;;;;;11.45;2.85;;;14.20;99.90;;;;;;4985714;28;20027;-77
2022/10/07 09:38:36;;;;;;;6.13;2.58;;;14.30;99.90;;;;;;4973696;28;20058;-81
2022/10/07 09:41:18;;;;;;;12.93;2.50;;;14.30;99.90;;;;;;4980121;28;20100;-80
2022/10/07 09:44:05;;;;;;;6.65;2.42;;;14.30;99.90;;;;;;4986631;28;20027;-81
2022/10/07 09:46:45;;;;;;;7.35;2.60;;;14.40;99.90;;;;;;4972719;28;20034;-81
2022/10/07 09:49:26;;;;;;;8.70;2.78;;;14.50;99.90;;;;;;4972729;28;20043;-80
2022/10/07 09:52:13;;;;;;;6.13;2.22;;;14.60;99.90;;;;;;4985331;28;20050;-81
2022/10/07 09:54:39;;;;;;;9.00;2.38;;;14.60;99.90;;;;;;4996689;28;20026;-81
2022/10/07 09:57:19;;;;;;;5.68;2.40;;;14.60;99.90;;;;;;4996696;28;20027;-81
2022/10/07 09:59:44;;;;;;;7.85;2.17;;;14.70;99.90;;;;;;4997746;28;20057;-81
2022/10/07 10:02:19;;;;;;;8.52;2.22;;;14.70;99.90;;;;;;4996706;28;20030;-81
2022/10/07 10:04:51;;;;;;;7.53;2.28;;;14.80;99.90;;;;;;4980136;28;20034;-80
2022/10/07 10:07:26;;;;;;;11.38;2.70;;;14.80;99.90;;;;;;4980569;28;20026;-81
2022/10/07 10:09:59;;;;;;;7.10;2.30;;;14.90;99.90;;;;;;4997261;28;20035;-80
2022/10/07 10:12:25;;;;;;;10.48;2.65;;;14.90;99.90;;;;;;4980718;28;20579;-81
2022/10/07 10:14:54;;;;;;;10.68;2.45;;;15.00;99.90;;;;;;4979581;28;20054;-81
2022/10/07 10:17:29;;;;;;;9.45;2.20;;;15.00;99.90;;;;;;4979900;28;20031;-82
2022/10/07 10:20:15;;;;;;;6.03;1.98;;;15.00;99.90;;;;;;4979694;28;20040;-80
2022/10/07 10:22:41;;;;;;;6.25;2.10;;;15.10;99.90;;;;;;4997151;28;20018;-82
2022/10/07 10:28:18;;;;;;;5.55;2.10;;;15.20;99.90;;;;;;4996599;28;20122;-81
2022/10/07 10:30:55;;;;;;;6.47;1.90;;;15.20;99.90;;;;;;4981296;28;20031;-84
2022/10/07 10:33:45;;;;;;;8.25;2.08;;;15.20;99.90;;;;;;4982528;28;20035;-84
2022/10/07 10:36:19;;;;;;;5.45;1.98;;;15.30;99.90;;;;;;4998597;28;20023;-83
2022/10/07 10:38:49;;;;;;;7.13;2.40;;;15.40;99.90;;;;;;4982679;28;20030;-86
2022/10/07 10:41:27;;;;;;;6.45;2.17;;;15.50;99.90;;;;;;4983263;28;20034;-86
2022/10/07 10:44:10;;;;;;;13.02;2.00;;;15.50;99.90;;;;;;4999485;28;20105;-84
2022/10/07 10:47:06;;;;;;;5.03;2.10;;;15.60;99.90;;;;;;4981500;28;20062;-84
2022/10/07 10:50:03;;;;;;;6.63;1.92;;;15.60;99.90;;;;;;4964697;28;20043;-83
2022/10/07 10:52:37;;;;;;;5.82;1.80;;;15.70;99.90;;;;;;4980901;28;20042;-82
2022/10/07 10:55:38;;;;;;;7.80;2.10;;;15.80;99.90;;;;;;4996043;28;20037;-81
2022/10/07 10:58:17;;;;;;;5.93;2.15;;;16.00;99.90;;;;;;4980991;28;20026;-83
2022/10/07 11:00:48;;;;;;;5.28;2.00;;;16.10;99.90;;;;;;4994458;28;20064;-83
2022/10/07 11:03:42;;;;;;;12.80;2.42;;;16.20;99.90;;;;;;4996544;28;20061;-83
2022/10/07 11:06:11;;;;;;;6.82;1.88;;;16.30;99.90;;;;;;4996776;28;20038;-82
2022/10/07 11:08:37;;;;;;;8.48;1.92;;;16.40;99.90;;;;;;4979376;28;20026;-82
2022/10/07 11:11:11;;;;;;;5.80;1.77;;;16.40;99.90;;;;;;4996418;28;20034;-80
2022/10/07 11:13:42;;;;;;;7.57;2.17;;;16.50;99.90;;;;;;4979118;28;20430;-82
2022/10/07 11:16:26;;;;;;;9.60;1.90;;;16.60;99.90;;;;;;4979457;28;20460;-82
2022/10/07 11:19:06;;;;;;;6.28;2.22;;;16.70;99.90;;;;;;4979017;28;20041;-82
2022/10/07 11:21:43;;;;;;;8.02;2.05;;;16.80;99.90;;;;;;4997339;28;20037;-83
2022/10/07 11:24:18;;;;;;;9.23;2.45;;;17.00;99.90;;;;;;4998484;28;20027;-84
2022/10/07 11:26:49;;;;;;;5.53;2.00;;;17.10;99.90;;;;;;4996718;28;20034;-83
2022/10/07 11:29:27;;;;;;;7.47;1.80;;;17.20;99.90;;;;;;4978724;28;20053;-81
2022/10/07 11:31:59;;;;;;;6.63;2.08;;;17.20;99.90;;;;;;4975394;28;20034;-80
2022/10/07 11:35:13;;;;;;;4.45;1.88;;;17.40;99.90;;;;;;4984425;28;20360;-78
2022/10/07 11:37:57;;;;;;;9.40;2.00;;;17.40;99.90;;;;;;4966044;28;20065;-80
2022/10/07 11:40:25;;;;;;;7.40;2.20;;;17.50;99.90;;;;;;4993007;28;20058;-78
2022/10/07 11:42:53;;;;;;;5.18;2.17;;;17.60;99.90;;;;;;4994146;28;20065;-78
2022/10/07 11:45:25;;;;;;;5.03;1.73;;;17.70;99.90;;;;;;4977449;28;20081;-79
2022/10/07 11:48:01;;;;;;;5.07;1.88;;;17.80;99.90;;;;;;4994883;28;20121;-78
2022/10/07 11:50:45;;;;;;;6.30;2.08;;;17.90;99.90;;;;;;4977782;28;20494;-80
2022/10/07 11:53:20;;;;;;;13.95;2.90;;;18.00;99.90;;;;;;4995559;28;20069;-81
2022/10/07 11:55:57;;;;;;;17.55;3.60;;;18.10;99.90;;;;;;4974265;28;20032;-81
2022/10/07 11:58:31;;;;;;;14.65;3.15;;;18.20;99.90;;;;;;4990050;28;20361;-80
2022/10/07 12:01:24;;;;;;;14.38;3.72;;;18.30;99.90;;;;;;4990301;28;20291;-80
2022/10/07 12:03:52;;;;;;;9.95;2.53;;;18.50;99.90;;;;;;4962803;28;20046;-80
2022/10/07 12:06:18;;;;;;;9.05;2.40;;;18.60;99.90;;;;;;4995228;28;20412;-81
2022/10/07 12:08:44;;;;;;;8.32;2.17;;;18.60;99.90;;;;;;4977500;28;20053;-80
2022/10/07 12:11:13;;;;;;;7.28;2.33;;;18.80;99.90;;;;;;4977978;28;20387;-80
2022/10/07 12:13:47;;;;;;;8.95;2.40;;;18.80;99.90;;;;;;4994552;28;20058;-80
2022/10/07 12:16:30;;;;;;;6.70;2.63;;;18.90;99.90;;;;;;4994092;28;20109;-81
2022/10/07 12:19:05;;;;;;;9.80;2.80;;;18.80;99.90;;;;;;4994226;28;20518;-81
2022/10/07 12:22:03;;;;;;;9.32;2.78;;;18.90;99.90;;;;;;4977844;28;20476;-81
2022/10/07 12:24:34;;;;;;;6.18;3.35;;;19.20;99.90;;;;;;4993517;28;20101;-80
2022/10/07 12:27:12;;;;;;;5.15;2.30;;;19.60;99.90;;;;;;4983928;28;20072;-80
2022/10/07 12:30:01;;;;;;;5.75;1.83;;;19.80;99.90;;;;;;4992051;28;20069;-77
2022/10/07 12:32:46;;;;;;;6.97;2.60;;;19.90;99.90;;;;;;4971769;28;20038;-79
2022/10/07 12:35:33;;;;;;;8.85;2.50;;;20.30;99.90;;;;;;4992524;28;20042;-80
2022/10/07 12:38:09;;;;;;;8.30;2.40;;;20.40;99.90;;;;;;4971945;28;20027;-77
2022/10/07 12:40:36;;;;;;;7.43;2.10;;;20.40;99.90;;;;;;4991597;28;20034;-82
2022/10/07 12:43:33;;;;;;;6.00;2.42;;;20.80;99.90;;;;;;4979734;28;20037;-80
2022/10/07 12:46:02;;;;;;;4.35;2.28;;;21.30;99.90;;;;;;4978348;28;20046;-79
2022/10/07 12:48:35;;;;;;;6.53;2.33;;;22.00;99.90;;;;;;4987847;28;20027;-80
2022/10/07 12:51:03;;;;;;;8.77;2.53;;;22.40;99.60;;;;;;4993770;28;20057;-80
2022/10/07 12:53:34;;;;;;;6.03;2.53;;;22.80;98.80;;;;;;4975547;28;20054;-79
2022/10/07 12:56:00;;;;;;;8.55;2.38;;;23.00;97.90;;;;;;4988311;28;20029;-76
2022/10/07 13:02:02;;;;;;;11.10;2.30;;;23.10;97.20;;;;;;4980140;28;20081;-79
2022/10/07 13:04:50;;;;;;;8.75;2.15;;;23.10;96.40;;;;;;4983870;28;20480;-79
2022/10/07 13:07:38;;;;;;;6.30;2.55;;;23.60;95.50;;;;;;4984594;28;20157;-79
2022/10/07 13:10:29;;;;;;;8.40;2.45;;;24.00;94.70;;;;;;4972048;28;20046;-79
2022/10/07 13:13:01;;;;;;;4.60;2.47;;;24.10;93.90;;;;;;4994338;28;20038;-80
2022/10/07 13:15:41;;;;;;;7.38;2.45;;;24.40;93.30;;;;;;4978456;28;20026;-79
2022/10/07 13:18:29;;;;;;;8.63;2.20;;;24.70;92.60;;;;;;4980389;28;21259;-77
2022/10/07 13:21:13;;;;;;;9.45;2.20;;;24.90;91.50;;;;;;4994988;28;20077;-84
2022/10/07 13:23:38;;;;;;;7.32;2.67;;;25.20;90.90;;;;;;4980115;28;20117;-79